createdAt,value
2019-04-07T00:00:35.877Z,43.70
2019-04-07T00:03:08.045Z,45.37
2019-04-07T00:05:41.456Z,77.93
2019-04-07T00:08:13.754Z,43.73
2019-04-07T00:10:45.535Z,44.13
2019-04-07T00:13:17.340Z,36.23
2019-04-07T00:15:49.149Z,39.67
2019-04-07T00:18:20.857Z,43.73
2019-04-07T00:20:52.877Z,42.63
2019-04-07T00:23:25.163Z,40.93
2019-04-07T00:25:56.931Z,41.80
2019-04-07T00:28:28.725Z,47.20
2019-04-07T00:31:00.725Z,40.80
2019-04-07T00:33:32.652Z,36.67
2019-04-07T00:36:04.639Z,46.27
2019-04-07T00:38:36.401Z,43.87
2019-04-07T00:41:08.884Z,41.03
2019-04-07T00:43:41.792Z,42.23
2019-04-07T00:46:13.784Z,38.53
2019-04-07T00:48:45.566Z,47.20
2019-04-07T00:51:17.850Z,64.53
2019-04-07T00:53:50.770Z,41.53
2019-04-07T00:56:22.684Z,42.03
2019-04-07T00:58:54.559Z,40.43
2019-04-07T01:01:26.358Z,41.23
2019-04-07T01:03:58.405Z,40.63
2019-04-07T01:06:30.269Z,38.50
2019-04-07T01:09:01.988Z,42.60
2019-04-07T01:11:35.447Z,41.60
2019-04-07T01:14:08.217Z,37.93
2019-04-07T01:16:41.771Z,38.50
2019-04-07T01:19:14.590Z,38.07
2019-04-07T01:21:46.918Z,39.07
2019-04-07T01:24:18.745Z,44.60
2019-04-07T01:26:51.647Z,43.50
2019-04-07T01:29:23.465Z,43.83
2019-04-07T01:31:55.967Z,57.57
2019-04-07T01:34:28.942Z,40.50
2019-04-07T01:37:02.055Z,45.70
2019-04-07T01:39:33.948Z,54.93
2019-04-07T01:42:12.585Z,64.90
2019-04-07T01:45:02.837Z,60.93
2019-04-07T01:47:44.287Z,61.47
2019-04-07T01:50:28.636Z,53.00
2019-04-07T01:53:10.765Z,45.17
2019-04-07T01:56:01.869Z,42.97
2019-04-07T01:58:43.481Z,43.90
2019-04-07T02:01:37.248Z,47.40
2019-04-07T02:04:45.882Z,61.47
2019-04-07T02:07:49.009Z,48.03
2019-04-07T02:10:30.633Z,43.07
2019-04-07T02:13:20.715Z,43.70
2019-04-07T02:16:12.324Z,44.37
2019-04-07T02:18:54.238Z,41.47
2019-04-07T02:21:44.974Z,53.70
2019-04-07T02:24:38.099Z,56.83
2019-04-07T02:27:29.415Z,53.57
2019-04-07T02:30:17.201Z,56.17
2019-04-07T02:33:06.996Z,81.27
2019-04-07T02:35:56.021Z,98.70
2019-04-07T02:39:06.010Z,102.90
2019-04-07T02:41:48.738Z,77.70
2019-04-07T02:44:51.172Z,73.77
2019-04-07T02:47:44.679Z,52.97
2019-04-07T02:50:35.450Z,86.43
2019-04-07T02:53:20.361Z,74.00
2019-04-07T02:56:01.996Z,52.30
2019-04-07T02:58:44.361Z,56.77
2019-04-07T03:01:35.178Z,68.97
2019-04-07T03:04:24.556Z,75.13
2019-04-07T03:07:13.562Z,68.50
2019-04-07T03:10:13.439Z,56.70
2019-04-07T03:12:57.514Z,66.33
2019-04-07T03:15:46.257Z,64.67
2019-04-07T03:18:37.412Z,61.80
2019-04-07T03:21:28.130Z,61.93
2019-04-07T03:24:24.713Z,59.43
2019-04-07T03:27:13.660Z,60.90
2019-04-07T03:30:17.832Z,56.43
2019-04-07T03:33:14.246Z,61.03
2019-04-07T03:36:05.748Z,54.43
2019-04-07T03:38:53.819Z,53.13
2019-04-07T03:41:53.756Z,47.73
2019-04-07T03:44:34.515Z,55.60
2019-04-07T03:47:32.066Z,56.30
2019-04-07T03:50:23.056Z,56.40
2019-04-07T03:53:12.438Z,53.53
2019-04-07T03:55:53.481Z,59.60
2019-04-07T03:58:42.988Z,58.57
2019-04-07T04:01:34.284Z,55.00
2019-04-07T04:04:44.205Z,51.00
2019-04-07T04:07:31.560Z,56.57
2019-04-07T04:10:23.856Z,55.90
2019-04-07T04:13:14.384Z,54.90
2019-04-07T04:15:56.684Z,61.23
2019-04-07T04:18:28.750Z,56.73
2019-04-07T04:21:01.408Z,48.60
2019-04-07T04:23:33.699Z,229.93
2019-04-07T04:26:06.358Z,72.97
2019-04-07T04:28:39.052Z,50.60
2019-04-07T04:31:11.126Z,55.40
2019-04-07T04:33:42.933Z,52.83
2019-04-07T04:36:15.560Z,51.03
2019-04-07T04:38:48.034Z,52.87
2019-04-07T04:41:20.917Z,60.70
2019-04-07T04:43:53.512Z,56.73
2019-04-07T04:46:26.221Z,53.70
2019-04-07T04:48:59.292Z,50.70
2019-04-07T04:51:35.473Z,56.47
2019-04-07T04:54:07.143Z,51.87
2019-04-07T04:56:39.441Z,49.60
2019-04-07T04:59:11.453Z,55.20
2019-04-07T05:01:43.471Z,52.13
2019-04-07T05:04:15.258Z,58.27
2019-04-07T05:06:47.816Z,58.20
2019-04-07T05:09:20.027Z,52.00
2019-04-07T05:11:51.810Z,49.67
2019-04-07T05:14:24.176Z,57.50
2019-04-07T05:16:56.094Z,58.63
2019-04-07T05:19:28.279Z,52.17
2019-04-07T05:22:00.219Z,62.83
2019-04-07T05:24:32.220Z,65.63
2019-04-07T05:27:03.987Z,66.47
2019-04-07T05:29:35.755Z,57.90
2019-04-07T05:32:07.989Z,61.90
2019-04-07T05:34:40.311Z,61.97
2019-04-07T05:37:12.106Z,59.97
2019-04-07T05:39:43.870Z,98.70
2019-04-07T05:42:15.752Z,58.87
2019-04-07T05:44:47.654Z,63.00
2019-04-07T05:47:19.999Z,90.80
2019-04-07T05:49:54.493Z,63.33
2019-04-07T05:52:25.286Z,63.57
2019-04-07T05:54:57.786Z,59.13
2019-04-07T05:57:33.359Z,52.03
2019-04-07T06:00:04.265Z,49.03
2019-04-07T06:02:36.335Z,53.97
2019-04-07T06:05:08.233Z,56.47
2019-04-07T06:07:40.111Z,55.90
2019-04-07T06:10:11.962Z,52.27
2019-04-07T06:12:47.150Z,50.87
2019-04-07T06:15:21.998Z,50.90
2019-04-07T06:17:52.207Z,55.37
2019-04-07T06:20:24.704Z,48.27
2019-04-07T06:22:56.523Z,51.73
2019-04-07T06:25:33.244Z,51.77
2019-04-07T06:28:02.265Z,46.57
2019-04-07T06:30:36.114Z,53.30
2019-04-07T06:33:07.449Z,55.67
2019-04-07T06:35:39.331Z,57.50
2019-04-07T06:38:11.042Z,64.80
2019-04-07T06:40:43.694Z,53.83
2019-04-07T06:43:15.676Z,51.40
2019-04-07T06:45:57.402Z,54.47
2019-04-07T06:48:30.496Z,52.33
2019-04-07T06:51:12.459Z,49.40
2019-04-07T06:54:04.938Z,57.90
2019-04-07T06:57:06.311Z,53.03
2019-04-07T06:59:52.475Z,53.30
2019-04-07T07:02:51.967Z,46.03
2019-04-07T07:05:36.489Z,57.70
2019-04-07T07:08:42.459Z,51.73
2019-04-07T07:11:28.582Z,55.27
2019-04-07T07:14:07.803Z,51.80
2019-04-07T07:16:53.070Z,45.63
2019-04-07T07:19:49.837Z,48.73
2019-04-07T07:22:34.784Z,47.83
2019-04-07T07:25:06.757Z,44.10
2019-04-07T07:27:40.383Z,48.83
2019-04-07T07:30:12.148Z,50.83
2019-04-07T07:32:44.240Z,47.37
2019-04-07T07:35:16.445Z,53.17
2019-04-07T07:37:48.448Z,46.87
2019-04-07T07:40:21.063Z,45.67
2019-04-07T07:42:55.432Z,45.90
2019-04-07T07:45:27.363Z,43.23
2019-04-07T07:47:59.262Z,49.20
2019-04-07T07:50:34.707Z,60.07
2019-04-07T07:53:06.805Z,43.23
2019-04-07T07:55:38.740Z,43.57
2019-04-07T07:58:11.602Z,43.10
2019-04-07T08:00:47.589Z,49.10
2019-04-07T08:03:22.631Z,51.77
2019-04-07T08:05:53.335Z,45.43
2019-04-07T08:08:25.372Z,46.83
2019-04-07T08:11:00.631Z,45.53
2019-04-07T08:13:32.491Z,47.87
2019-04-07T08:16:06.950Z,45.70
2019-04-07T08:18:43.540Z,41.63
2019-04-07T08:21:17.627Z,42.90
2019-04-07T08:23:51.360Z,44.57
2019-04-07T08:26:26.006Z,41.97
2019-04-07T08:28:58.124Z,42.80
2019-04-07T08:31:30.430Z,39.43
2019-04-07T08:34:02.368Z,40.27
2019-04-07T08:36:36.514Z,39.63
2019-04-07T08:39:19.391Z,40.80
2019-04-07T08:41:43.675Z,36.63
2019-04-07T08:44:17.567Z,40.90
2019-04-07T08:46:52.912Z,38.90
2019-04-07T08:49:27.714Z,46.93
2019-04-07T08:52:04.019Z,39.23
2019-04-07T08:54:33.100Z,33.93
2019-04-07T08:57:05.683Z,37.03
2019-04-07T08:59:42.388Z,29.70
2019-04-07T09:02:11.367Z,33.50
2019-04-07T09:04:47.272Z,29.67
2019-04-07T09:07:17.650Z,36.70
2019-04-07T09:09:50.180Z,33.57
2019-04-07T09:12:24.937Z,33.37
2019-04-07T09:14:55.880Z,29.50
2019-04-07T09:17:58.941Z,40.10
2019-04-07T09:21:07.841Z,103.77
2019-04-07T09:24:09.404Z,29.93
2019-04-07T09:27:02.312Z,29.83
2019-04-07T09:30:01.221Z,26.90
2019-04-07T09:32:52.506Z,28.00
2019-04-07T09:35:49.758Z,32.97
2019-04-07T09:38:29.426Z,27.03
2019-04-07T09:41:28.547Z,38.07
2019-04-07T09:44:25.419Z,441.23
2019-04-07T09:47:22.646Z,29.50
2019-04-07T09:50:07.241Z,37.93
2019-04-07T09:52:52.469Z,33.50
2019-04-07T09:55:35.571Z,37.17
2019-04-07T09:58:26.407Z,29.47
2019-04-07T10:01:20.026Z,29.30
2019-04-07T10:04:13.094Z,27.17
2019-04-07T10:07:00.964Z,31.57
2019-04-07T10:09:48.577Z,30.60
2019-04-07T10:12:40.494Z,30.33
2019-04-07T10:15:31.685Z,28.10
2019-04-07T10:18:13.119Z,36.73
2019-04-07T10:21:03.904Z,36.53
2019-04-07T10:23:45.860Z,28.33
2019-04-07T10:26:36.331Z,27.47
2019-04-07T10:29:27.586Z,31.20
2019-04-07T10:32:13.756Z,27.77
2019-04-07T10:35:08.024Z,36.07
2019-04-07T10:37:58.745Z,26.70
2019-04-07T10:40:45.417Z,26.10
2019-04-07T10:43:48.215Z,37.00
2019-04-07T10:46:40.041Z,28.07
2019-04-07T10:49:36.219Z,55.47
2019-04-07T10:52:22.238Z,58.80
2019-04-07T10:55:11.362Z,39.70
2019-04-07T10:58:05.467Z,23.57
2019-04-07T11:00:57.665Z,26.10
2019-04-07T11:03:45.385Z,30.50
2019-04-07T11:06:35.745Z,32.03
2019-04-07T11:09:28.383Z,31.97
2019-04-07T11:12:23.006Z,157.27
2019-04-07T11:15:13.796Z,35.07
2019-04-07T11:18:14.780Z,27.20
2019-04-07T11:21:04.676Z,25.25
2019-04-07T11:23:47.782Z,32.15
2019-04-07T11:26:33.141Z,26.48
2019-04-07T11:29:11.837Z,29.03
2019-04-07T11:31:56.876Z,38.10
2019-04-07T11:34:53.597Z,39.20
2019-04-07T11:37:44.195Z,27.95
2019-04-07T11:40:44.487Z,29.15
2019-04-07T11:43:28.919Z,25.40
2019-04-07T11:46:13.949Z,31.70
2019-04-07T11:48:54.726Z,26.75
2019-04-07T11:51:46.753Z,29.10
2019-04-07T11:54:35.596Z,32.63
2019-04-07T11:57:23.435Z,31.97
2019-04-07T12:00:25.119Z,38.35
2019-04-07T12:03:27.628Z,39.98
2019-04-07T12:06:14.211Z,30.10
2019-04-07T12:09:05.048Z,25.43
2019-04-07T12:11:54.469Z,47.50
2019-04-07T12:14:43.008Z,29.27
2019-04-07T12:17:32.065Z,23.95
2019-04-07T12:20:10.854Z,30.35
2019-04-07T12:22:58.254Z,25.10
2019-04-07T12:25:48.287Z,25.82
2019-04-07T12:28:50.391Z,35.15
2019-04-07T12:31:48.669Z,26.62
2019-04-07T12:34:38.647Z,27.75
2019-04-07T12:37:19.618Z,39.00
2019-04-07T12:40:26.629Z,26.40
2019-04-07T12:43:07.312Z,34.38
2019-04-07T12:46:10.137Z,23.38
2019-04-07T12:49:17.616Z,32.10
2019-04-07T12:52:09.665Z,29.45
2019-04-07T12:54:48.986Z,25.70
2019-04-07T12:57:39.564Z,24.57
2019-04-07T13:00:39.108Z,27.90
2019-04-07T13:03:37.512Z,154.33
2019-04-07T13:06:28.772Z,24.93
2019-04-07T13:09:10.679Z,23.85
2019-04-07T13:12:15.093Z,24.17
2019-04-07T13:14:54.651Z,38.03
2019-04-07T13:17:42.226Z,34.03
2019-04-07T13:20:42.575Z,20.73
2019-04-07T13:23:36.066Z,24.00
2019-04-07T13:26:33.518Z,25.13
2019-04-07T13:29:11.813Z,41.63
2019-04-07T13:31:50.600Z,25.05
2019-04-07T13:34:45.375Z,24.80
2019-04-07T13:37:33.045Z,24.03
2019-04-07T13:40:36.404Z,23.70
2019-04-07T13:43:33.144Z,26.70
2019-04-07T13:46:33.515Z,21.80
2019-04-07T13:49:33.299Z,25.27
2019-04-07T13:52:31.189Z,19.75
2019-04-07T13:55:10.421Z,21.13
2019-04-07T13:57:57.706Z,106.63
2019-04-07T14:00:54.171Z,25.70
2019-04-07T14:03:35.824Z,21.43
2019-04-07T14:06:16.424Z,32.57
2019-04-07T14:09:29.051Z,25.87
2019-04-07T14:12:13.863Z,18.00
2019-04-07T14:15:14.280Z,23.23
2019-04-07T14:18:05.801Z,17.90
2019-04-07T14:20:43.084Z,18.93
2019-04-07T14:23:34.277Z,19.93
2019-04-07T14:26:34.625Z,35.87
2019-04-07T14:29:31.667Z,33.63
2019-04-07T14:32:31.593Z,13.87
2019-04-07T14:35:25.818Z,20.87
2019-04-07T14:38:15.761Z,27.00
2019-04-07T14:41:06.497Z,17.83
2019-04-07T14:44:00.639Z,24.93
2019-04-07T14:46:46.739Z,22.37
2019-04-07T14:49:41.107Z,31.03
2019-04-07T14:52:21.570Z,19.73
2019-04-07T14:55:19.571Z,38.17
2019-04-07T14:58:16.792Z,25.33
2019-04-07T15:01:05.896Z,21.02
2019-04-07T15:03:36.684Z,19.00
2019-04-07T15:06:08.766Z,22.33
2019-04-07T15:08:46.284Z,21.03
2019-04-07T15:11:32.288Z,18.02
2019-04-07T15:14:04.281Z,36.17
2019-04-07T15:16:36.815Z,145.75
2019-04-07T15:19:09.562Z,26.33
2019-04-07T15:21:42.195Z,32.88
2019-04-07T15:24:13.925Z,23.07
2019-04-07T15:26:49.508Z,17.82
2019-04-07T15:29:19.898Z,24.63
2019-04-07T15:31:53.258Z,28.12
2019-04-07T15:34:26.414Z,98.52
2019-04-07T15:37:02.206Z,20.10
2019-04-07T15:39:37.146Z,32.73
2019-04-07T15:42:09.483Z,53.08
2019-04-07T15:44:42.769Z,37.48
2019-04-07T15:47:15.403Z,101.90
2019-04-07T15:49:47.160Z,34.65
2019-04-07T15:52:19.654Z,35.50
2019-04-07T15:54:54.337Z,39.80
2019-04-07T15:57:25.744Z,34.30
2019-04-07T16:00:00.067Z,39.13
2019-04-07T16:02:31.311Z,41.73
2019-04-07T16:05:03.711Z,33.00
2019-04-07T16:07:36.346Z,34.00
2019-04-07T16:10:08.319Z,32.75
2019-04-07T16:12:46.500Z,124.47
2019-04-07T16:15:16.408Z,37.53
2019-04-07T16:17:47.610Z,24.52
2019-04-07T16:20:24.513Z,32.42
2019-04-07T16:22:52.908Z,38.02
2019-04-07T16:25:27.615Z,199.87
2019-04-07T16:27:58.749Z,113.70
2019-04-07T16:30:30.622Z,152.25
2019-04-07T16:33:04.416Z,281.02
2019-04-07T16:35:36.525Z,149.80
2019-04-07T16:38:09.448Z,208.07
2019-04-07T16:40:43.300Z,122.78
2019-04-07T16:43:17.495Z,232.72
2019-04-07T16:45:48.986Z,123.92
2019-04-07T16:48:20.912Z,104.47
2019-04-07T16:50:55.277Z,265.10
2019-04-07T16:53:26.949Z,74.62
2019-04-07T16:55:58.904Z,207.25
2019-04-07T16:58:34.344Z,115.00
2019-04-07T17:01:04.613Z,65.75
2019-04-07T17:03:36.563Z,63.15
2019-04-07T17:06:11.751Z,63.75
2019-04-07T17:08:42.325Z,69.03
2019-04-07T17:11:14.216Z,51.83
2019-04-07T17:13:46.098Z,48.02
2019-04-07T17:16:22.605Z,53.98
2019-04-07T17:18:55.383Z,56.15
2019-04-07T17:21:25.508Z,85.85
2019-04-07T17:23:58.120Z,97.55
2019-04-07T17:26:30.736Z,99.97
2019-04-07T17:29:03.213Z,115.77
2019-04-07T17:31:35.174Z,76.73
2019-04-07T17:34:09.891Z,63.53
2019-04-07T17:36:40.858Z,67.40
2019-04-07T17:39:28.075Z,56.13
2019-04-07T17:42:01.572Z,72.33
2019-04-07T17:44:41.396Z,83.90
2019-04-07T17:47:38.165Z,73.67
2019-04-07T17:50:38.976Z,83.80
2019-04-07T17:53:40.141Z,86.13
2019-04-07T17:56:24.267Z,79.97
2019-04-07T17:59:24.203Z,110.87
2019-04-07T18:02:18.143Z,94.27
2019-04-07T18:05:22.050Z,91.33
2019-04-07T18:08:19.875Z,81.30
2019-04-07T18:11:17.723Z,77.53
2019-04-07T18:14:12.910Z,144.57
2019-04-07T18:17:13.104Z,150.67
2019-04-07T18:19:59.519Z,163.27
2019-04-07T18:22:56.996Z,192.43
2019-04-07T18:25:43.372Z,142.80
2019-04-07T18:28:34.341Z,165.60
2019-04-07T18:31:35.058Z,143.03
2019-04-07T18:34:32.113Z,120.00
2019-04-07T18:37:24.035Z,372.77
2019-04-07T18:40:18.663Z,230.30
2019-04-07T18:43:12.201Z,154.10
2019-04-07T18:46:01.129Z,120.37
2019-04-07T18:49:04.429Z,156.93
2019-04-07T18:51:53.743Z,164.53
2019-04-07T18:54:44.793Z,161.77
2019-04-07T18:57:45.074Z,144.07
2019-04-07T19:00:37.279Z,157.50
2019-04-07T19:03:41.795Z,183.37
2019-04-07T19:06:40.040Z,205.77
2019-04-07T19:09:33.129Z,177.37
2019-04-07T19:12:24.840Z,161.23
2019-04-07T19:15:36.541Z,167.33
2019-04-07T19:18:23.511Z,172.47
2019-04-07T19:21:20.440Z,178.77
2019-04-07T19:23:59.092Z,286.50
2019-04-07T19:26:54.309Z,342.00
2019-04-07T19:29:49.934Z,436.83
2019-04-07T19:32:43.156Z,425.70
2019-04-07T19:35:37.726Z,388.00
2019-04-07T19:38:30.968Z,439.83
2019-04-07T19:41:18.748Z,495.47
2019-04-07T19:44:17.551Z,742.53
2019-04-07T19:47:20.540Z,757.43
2019-04-07T19:50:23.494Z,601.70
2019-04-07T19:53:14.611Z,412.10
2019-04-07T19:56:20.885Z,301.27
2019-04-07T19:59:11.485Z,248.70
2019-04-07T20:02:17.645Z,220.60
2019-04-07T20:05:10.118Z,178.10
2019-04-07T20:08:14.777Z,201.33
2019-04-07T20:10:55.865Z,188.47
2019-04-07T20:13:45.212Z,136.43
2019-04-07T20:16:26.971Z,208.93
2019-04-07T20:19:15.398Z,184.77
2019-04-07T20:22:09.157Z,204.17
2019-04-07T20:25:00.791Z,209.23
2019-04-07T20:27:57.357Z,235.40
2019-04-07T20:30:37.726Z,201.97
2019-04-07T20:33:32.759Z,168.00
2019-04-07T20:36:23.761Z,148.57
2019-04-07T20:39:07.272Z,153.30
2019-04-07T20:41:49.390Z,155.80
2019-04-07T20:44:38.813Z,181.47
2019-04-07T20:47:23.619Z,323.87
2019-04-07T20:50:11.854Z,265.93
2019-04-07T20:53:11.407Z,315.53
2019-04-07T20:55:53.983Z,284.37
2019-04-07T20:58:53.025Z,340.67
2019-04-07T21:01:35.445Z,321.13
2019-04-07T21:04:25.682Z,313.40
2019-04-07T21:07:29.802Z,242.97
2019-04-07T21:10:24.314Z,273.80
2019-04-07T21:13:30.155Z,318.53
2019-04-07T21:16:26.002Z,325.90
2019-04-07T21:19:13.024Z,305.77
2019-04-07T21:22:15.350Z,134.17
2019-04-07T21:25:01.794Z,104.70
2019-04-07T21:27:39.292Z,151.83
2019-04-07T21:30:27.266Z,130.70
2019-04-07T21:33:23.769Z,175.00
2019-04-07T21:36:12.076Z,205.37
2019-04-07T21:39:01.628Z,208.03
2019-04-07T21:41:52.047Z,189.63
2019-04-07T21:44:34.663Z,170.57
2019-04-07T21:47:14.257Z,184.50
2019-04-07T21:49:56.255Z,188.27
2019-04-07T21:52:43.255Z,204.53
2019-04-07T21:55:31.609Z,197.60
2019-04-07T21:58:14.500Z,246.27
2019-04-07T22:01:02.860Z,365.00
2019-04-07T22:03:52.210Z,368.60
2019-04-07T22:06:39.258Z,264.37
2019-04-07T22:09:23.312Z,276.97
2019-04-07T22:11:56.142Z,280.13
2019-04-07T22:14:28.370Z,297.10
2019-04-07T22:17:02.456Z,287.30
2019-04-07T22:19:33.959Z,287.53
2019-04-07T22:22:06.867Z,247.33
2019-04-07T22:24:39.536Z,236.57
2019-04-07T22:27:12.476Z,241.73
2019-04-07T22:29:44.900Z,208.50
2019-04-07T22:32:19.280Z,222.53
2019-04-07T22:34:50.463Z,136.37
2019-04-07T22:37:23.424Z,173.83
2019-04-07T22:39:59.089Z,164.97
2019-04-07T22:42:28.841Z,177.10
2019-04-07T22:45:00.693Z,186.63
2019-04-07T22:47:32.573Z,179.43
2019-04-07T22:50:05.760Z,167.30
2019-04-07T22:52:38.278Z,198.40
2019-04-07T22:55:10.169Z,179.57
2019-04-07T22:57:42.021Z,155.57
2019-04-07T23:00:23.351Z,180.13
2019-04-07T23:02:55.445Z,165.77
2019-04-07T23:05:27.686Z,145.60
2019-04-07T23:07:59.910Z,151.90
2019-04-07T23:10:31.882Z,151.10
2019-04-07T23:13:03.717Z,123.80
2019-04-07T23:15:42.567Z,133.33
2019-04-07T23:18:10.306Z,118.00
2019-04-07T23:20:43.887Z,132.87
2019-04-07T23:23:16.450Z,133.63
2019-04-07T23:25:48.278Z,124.70
2019-04-07T23:28:20.859Z,110.40
2019-04-07T23:30:52.756Z,130.00
2019-04-07T23:33:25.560Z,115.10
2019-04-07T23:35:57.526Z,127.17
2019-04-07T23:38:30.327Z,107.07
2019-04-07T23:41:03.241Z,105.33
2019-04-07T23:43:35.540Z,100.13
2019-04-07T23:46:19.445Z,98.17
2019-04-07T23:48:40.831Z,92.20
2019-04-07T23:51:12.945Z,105.43
2019-04-07T23:54:12.201Z,129.40
2019-04-07T23:56:44.889Z,158.60
2019-04-07T23:59:16.910Z,181.27
